Aviation Digital Data Service (ADDS)

Output produced by METARs form (2116 UTC 17 January 2017)
found at http://www.aviationweather.gov/adds/metars/
 
KBOS 172054Z 07008KT 10SM SCT033 BKN080 OVC250 05/00 A3019 RMK AO2 SLP224 T00500000 56004
KBOS 172104Z 1721/1824 07008KT P6SM SCT035 BKN080 
     FM172230 10008KT P6SM -RA SCT035 OVC070 
     FM180300 12013G21KT 4SM -RA OVC010 
     FM181100 08018G26KT 2SM -RA OVC010 
     FM181700 06017G26KT 1SM BR VCSH OVC010
       
KLGA 172051Z 08006KT 2 1/2SM HZ FEW011 OVC018 05/02 A3010 RMK AO2 SFC VIS 4 RAE05B07E39 SLP192 P0000 60004 T00500022 56018 $
KLGA 172035Z 1721/1818 10005KT 3SM -RA BR SCT006 OVC012 
     FM172300 07008KT 1SM -RA BR OVC005 
     FM180700 02006KT 2SM -RA BR OVC005 
     FM181300 35007KT 4SM BR BKN006 OVC010 
     FM181600 35008KT 5SM BR BKN010 OVC020
       
KJFK 172108Z 09006KT 6SM HZ OVC013 04/02 A3012 RMK AO2 T00440017
KJFK 172035Z 1721/1824 10007KT 3SM -RA BR SCT008 OVC012 
     FM172300 08008KT 1SM -RA BR OVC005 
     FM180700 01006KT 2SM -RA BR OVC005 
     FM181300 34007KT 4SM BR BKN006 OVC010 
     FM181600 34008KT 5SM BR BKN010 OVC020
       
KEWR 172051Z 08005KT 5SM BR OVC014 04/02 A3009 RMK AO2 SLP190 CIG 012V016 P0000 60002 T00440022 56018 $
KEWR 172035Z 1721/1824 10006KT 3SM -RA BR SCT008 OVC012 
     FM172300 06005KT 1 1/2SM -RA BR OVC005 
     FM180700 01005KT 3SM -RA BR OVC005 
     FM181300 34007KT 4SM -RA BR BKN006 OVC010 
     FM181600 34008KT 5SM BR BKN010 OVC020
       
KPHL 172054Z 10004KT 5SM -RA BR BKN009 OVC025 07/05 A3004 RMK AO2 RAB46 SLP173 P0000 60000 T00720050 58024
KPHL 172042Z 1721/1824 12006KT 5SM -SHRA BR OVC008 
     FM172300 11004KT 2SM -SHRA BR OVC005 
     FM180100 VRB03KT 1SM -DZ BR OVC003 
     FM181000 31006KT 3SM BR BKN005 OVC015 
     FM181500 31008KT P6SM BKN015 
     FM181700 32010G18KT P6SM BKN035
       
KBWI 172054Z 10004KT 1 3/4SM RA BR OVC003 07/07 A3001 RMK AO2 RAE07B32 SLP162 P0003 60006 T00670067 56022
KBWI 172107Z 1721/1824 16005KT 2SM BR OVC008 
     TEMPO 1721/1724 1SM BR OVC004 
     FM180200 21005KT 2SM BR BKN003 
     FM180400 23006KT 1SM BR BKN008 
     FM180800 28006KT P6SM BKN025 
     FM181000 29006KT P6SM SCT040 
     FM181600 30011G19KT P6SM BKN040
       
KDCA 172057Z 18006KT 6SM BR OVC010 09/09 A3000 RMK AO2 T00890089
KDCA 172054Z 1721/1818 19007KT 4SM BR OVC008 
     TEMPO 1721/1724 2SM BR 
     FM180200 21008KT 3SM BR BKN010 
     FM180700 25006KT 1SM BR BKN015 
     FM180900 28006KT P6SM BKN030 
     FM181000 29006KT P6SM BKN050 
     FM181500 30011G18KT P6SM SCT060 
     FM181700 31013G21KT P6SM SCT030
       
KIAD 172056Z 18004KT 1 1/2SM BR OVC004 08/07 A2999 RMK AO2 SFC VIS 2 1/2 T00830072
KIAD 172054Z 1721/1824 19008KT 2SM BR OVC008 
     TEMPO 1721/1724 1SM BR 
     FM180200 21008KT 2SM BR BKN015 
     FM180800 27005KT 1SM BR BKN015 
     FM181200 30006KT P6SM SCT040 
     FM181500 30010G17KT P6SM BKN040 
     FM181800 31014G22KT P6SM BKN030 
     FM182300 32010KT P6SM SCT030
       
KCLT 172052Z 21008KT 10SM FEW018 BKN170 OVC250 17/12 A3013 RMK AO2 SLP200 T01720122 55016
KCLT 172104Z 1721/1818 22009KT P6SM BKN060 WS020/24035KT 
     FM180400 23008KT P6SM BKN025 WS020/24035KT 
     FM180900 24006KT 4SM BR OVC010 
     FM181500 28007KT P6SM BKN100
       
KATL 172052Z 21009KT 10SM SCT040 SCT180 BKN250 23/14 A3013 RMK AO2 SLP200 T02280139 56012
KATL 171941Z 1720/1824 20012G20KT P6SM SCT040 BKN250 
     FM180000 20009KT P6SM SCT040 BKN250 
     FM180200 21007KT P6SM BKN025 
     FM180900 23006KT 4SM BR OVC007 
     FM181400 28008KT P6SM OVC010 
     FM181600 30009KT P6SM BKN025 
     FM182100 31008KT P6SM OVC050
       
KTPA 172053Z 24004KT 10SM FEW042 BKN270 27/15 A3019 RMK AO2 SLP222 T02670150 56008
KTPA 172055Z 1721/1818 26007KT P6SM SCT045 BKN250 
     FM172300 30006KT P6SM SCT050 SCT250 
     FM180000 VRB03KT P6SM SCT060 SCT250 
     FM181400 18005KT P6SM SCT030 SCT250 
     FM181700 21007KT P6SM SCT040 SCT250
       
KMCO 172053Z 20005KT 10SM FEW044 FEW065 BKN300 26/15 A3020 RMK AO2 SLP224 T02610150 56005
KMCO 172057Z 1721/1818 19007KT P6SM SCT050 BKN250 
     FM180100 11004KT P6SM BKN250 
     TEMPO 1810/1813 5SM MIFG BR SCT002 
     FM181500 22006KT P6SM SCT035
       
KMIA 172053Z 11012G16KT 10SM FEW035 SCT180 BKN250 27/17 A3019 RMK AO2 SLP223 T02670167 55006
KMIA 171735Z 1718/1818 12012G18KT P6SM SCT035 SCT050 BKN250 
     FM180000 12007KT P6SM FEW025 SCT250 
     FM181400 13008KT P6SM FEW025 SCT250
       
KFLL 172053Z 13010KT 10SM FEW035 BKN250 24/17 A3018 RMK AO2 SLP220 T02440167 55007
KFLL 171735Z 1718/1818 14012KT P6SM FEW035 SCT250 
     FM180000 13007KT P6SM FEW025 SCT250 
     FM181400 14008KT P6SM FEW025 SCT250
       
KDTW 172053Z 24014KT 7SM BKN008 OVC015 08/06 A2980 RMK AO2 SLP095 T00830061 53010 $
KDTW 172106Z 1721/1824 24014KT 6SM BR BKN008 OVC015 
     FM172300 24010KT 5SM -DZ BR SCT005 OVC008 
     FM180400 25008KT 3SM -RA BR OVC006 
     FM181400 26006KT 5SM BR OVC015
       
KORD 172051Z 25008KT 4SM BR OVC007 03/02 A2988 RMK AO2 SLP124 T00330022 53012
KORD 172057Z 1721/1824 27010KT 4SM BR OVC007 
     FM172200 27008KT 3SM -DZ BR OVC004 
     TEMPO 1722/1802 2SM -SHRA BR 
     FM180600 27007KT 4SM BR SCT004 OVC006 
     FM181600 24012KT P6SM SCT020
       
KMDW 172053Z 25009KT 10SM OVC006 03/02 A2990 RMK AO2 SLP132 T00280017 53013
KMDW 172057Z 1721/1818 27010KT 5SM BR OVC007 
     FM172200 27008KT 4SM -DZ BR OVC004 
     TEMPO 1722/1802 3SM -SHRA BR 
     FM180600 27007KT 4SM BR SCT004 OVC006 
     FM181600 24012KT P6SM SCT020
       
KMSP 172053Z 31004KT 9SM OVC010 02/M01 A2998 RMK AO2 SLP160 T00171011 53001
KMSP 172057Z 1721/1824 31008KT P6SM SCT007 OVC012 
     FM180000 24004KT P6SM SCT020 
     FM180300 19005KT P6SM FEW250
       
KMEM 172054Z 27006KT 10SM OVC180 13/08 A3012 RMK AO2 SLP197 T01280078 53008
KMEM 172051Z 1721/1818 27007KT P6SM OVC150 
     FM180200 36004KT P6SM OVC100 
     FM181000 05004KT P6SM VCSH OVC035
       
KDFW 172053Z 01009KT 10SM BKN070 BKN080 BKN095 OVC150 10/03 A3012 RMK AO2 SLP197 T01000033 58024
KDFW 172100Z 1721/1824 01009KT P6SM VCSH BKN070 BKN100 OVC150 
     FM180200 02005KT 6SM -RA BR VCTS SCT015 OVC025CB 
     TEMPO 1804/1807 4SM -TSRA BR OVC012CB 
     FM180700 03005KT 3SM RA BR OVC008 
     TEMPO 1808/1812 1SM -DZ BR OVC005 
     FM181500 04006KT 6SM -DZ BR BKN015
       
KIAH 172053Z 05010KT 7SM BKN006 OVC015 15/14 A3005 RMK AO2 RAE39 SLP177 P0003 60017 T01500139 56019
KIAH 172029Z 1720/1824 02010KT P6SM -RA BKN006 OVC015 
     FM180300 07005KT 2SM -RA BR VCSH OVC005 
     FM180800 09003KT 2SM -SHRA BR VCTS OVC002CB 
     FM181400 16005KT 4SM -TSRA BR BKN008 OVC012CB 
     FM182100 12008KT 6SM -SHRA BR VCTS BKN010 OVC020CB
       
KDEN 172053Z 17003KT 10SM FEW220 06/M04 A2998 RMK AO2 SLP164 T00611039 56020
KDEN 172047Z 1721/1824 24005KT P6SM FEW200 
     FM180300 22011KT P6SM FEW200 
     FM181500 20007KT P6SM FEW200
       
KSLC 172054Z 31008KT 7SM FEW020 FEW200 M01/M06 A3024 RMK AO2 SLP264 T10111056 58024
KSLC 172105Z 1721/1824 34004KT 6SM HZ FEW020 
     FM180400 15004KT 5SM BR BCFG FEW020 
     FM181900 31004KT 6SM HZ FEW020
       
KSEA 172053Z 11005KT 7SM -RA SCT044 BKN055 OVC070 07/04 A2972 RMK AO2 SLP070 P0007 60008 T00720039 58015
KSEA 171720Z 1718/1824 18008KT P6SM -RA OVC050 
     FM180000 16012G20KT P6SM -RA OVC025 
     FM180600 18012G22KT 5SM RA BR OVC015 
     FM181600 18012KT P6SM -RA BKN020 OVC040
       
KSFO 172056Z 01004KT 8SM FEW009 SCT200 09/05 A3012 RMK AO2 SLP197 T00940050 58013 $
KSFO 172059Z 1721/1824 VRB03KT P6SM FEW009 BKN200 
     FM180300 16006KT P6SM BKN100 OVC150 
     FM181500 15012KT 6SM BR BKN060 OVC100 
     FM181800 17018KT 5SM -RA BR OVC025
       
KLAX 172053Z 26011KT 10SM SCT120 17/07 A3009 RMK AO2 SLP190 T01720067 56009
KLAX 171726Z 1718/1824 10006KT P6SM FEW100 
     FM172000 26008KT P6SM SKC 
     FM180400 VRB03KT P6SM SKC 
     FM180900 VRB03KT P6SM BKN012 
     FM181600 10005KT P6SM OVC021 
     FM182100 24006KT P6SM BKN025 OVC060
       
KSAN 172051Z 23005KT 10SM CLR 18/09 A3007 RMK AO2 SLP181 T01780094 58029
KSAN 172050Z 1721/1824 29008KT P6SM SKC 
     FM180100 VRB05KT P6SM SCT010 
     FM180900 VRB04KT P6SM BKN008 
     FM181700 VRB04KT P6SM FEW010 
     FM182100 28008KT P6SM FEW015
       
KLAS 172056Z 00000KT 10SM CLR 12/M09 A3013 RMK AO2 SLP204 T01171094 58023
KLAS 172046Z 1721/1818 VRB05KT P6SM SKC 
     FM180200 21007KT P6SM SKC
       
KPHX 172051Z 30006KT 10SM FEW050 BKN085 BKN110 BKN250 15/06 A3004 RMK AO2 SLP165 T01500061 58016
KPHX 172038Z 1721/1818 27005KT P6SM SCT090 BKN120 BKN220 
     FM180700 10003KT P6SM FEW120
       
KSDF 172056Z 28018G22KT 10SM SCT025 BKN030 OVC250 13/07 A2997 RMK AO2 SLP147 T01280072 53009
KSDF 172112Z 1721/1824 28017G23KT P6SM SCT023 BKN030 
     TEMPO 1721/1723 BKN023 
     FM172300 27012G18KT P6SM BKN021 
     TEMPO 1800/1803 BKN015 
     FM180300 28010KT P6SM OVC015 
     FM181800 VRB04KT P6SM BKN025
       
KIND 172054Z 26015KT 10SM OVC011 07/05 A2995 RMK AO2 SLP144 T00720050 53010
KIND 172014Z 1720/1824 25017KT P6SM BKN014 OVC029 
     FM180100 26008KT P6SM OVC008 
     FM181700 26005KT P6SM BKN010 
     FM181900 25005KT P6SM SCT015